Time;durP1;ratioP1;P1;durP2;ratioP2;P2;SDS_P1;SDS_P2;PMS_P1;PMS_P2;Temp;Humidity;BMP_temperature;BMP_pressure;BME280_temperature;BME280_humidity;BME280_pressure;Samples;Min_cycle;Max_cycle;Signal;HPM_P1;HPM_P2
2022/05/05 00:02:20;;;;;;;7.82;5.78;;;;;;;11.59;nan;-24140.75;4910059;29;20315;-73
2022/05/05 00:04:45;;;;;;;7.85;5.32;;;;;;;11.88;nan;-24148.78;4894787;29;20206;-74
2022/05/05 00:07:11;;;;;;;7.35;5.40;;;;;;;11.84;nan;-24147.66;4889314;29;20605;-73
2022/05/05 00:09:37;;;;;;;9.57;5.40;;;;;;;11.78;nan;-24146.09;4894931;29;20192;-74
2022/05/05 00:14:46;;;;;;;7.95;5.60;;;;;;;11.69;nan;-24143.41;4893915;29;20271;-74
2022/05/05 00:17:12;;;;;;;7.93;5.20;;;;;;;11.70;nan;-24143.69;4894797;29;20191;-73
2022/05/05 00:19:43;;;;;;;7.03;5.18;;;;;;;11.79;nan;-24146.25;4894596;29;20195;-73
2022/05/05 00:22:10;;;;;;;9.23;5.35;;;;;;;11.40;nan;-24135.53;4889720;29;20220;-74
2022/05/05 00:24:37;;;;;;;8.30;5.60;;;;;;;11.38;nan;-24134.81;4873145;29;20283;-73
2022/05/05 00:27:03;;;;;;;7.30;5.63;;;;;;;11.68;nan;-24143.13;4895400;29;20180;-78
2022/05/05 00:29:29;;;;;;;7.40;5.43;;;;;;;11.64;nan;-24142.16;4895391;29;20283;-72
2022/05/05 00:31:54;;;;;;;9.05;5.82;;;;;;;11.43;nan;-24136.22;4893839;29;20263;-75
2022/05/05 00:34:19;;;;;;;8.45;5.63;;;;;;;11.38;nan;-24134.97;4895491;29;20283;-73
2022/05/05 00:36:45;;;;;;;6.95;5.65;;;;;;;11.49;nan;-24138.06;4895249;29;20184;-76
2022/05/05 00:39:11;;;;;;;8.65;5.13;;;;;;;11.35;nan;-24133.97;4896520;29;20659;-73
2022/05/05 00:41:39;;;;;;;6.47;5.18;;;;;;;11.59;nan;-24140.59;4896220;29;20185;-76
2022/05/05 00:44:05;;;;;;;6.72;4.88;;;;;;;11.45;nan;-24136.94;4896174;29;20607;-72
2022/05/05 00:46:31;;;;;;;6.70;4.93;;;;;;;11.47;nan;-24137.34;4895675;29;20198;-73
2022/05/05 00:48:58;;;;;;;9.45;5.25;;;;;;;11.37;nan;-24134.53;4896265;29;20180;-75
2022/05/05 00:51:24;;;;;;;10.57;5.32;;;;;;;11.36;nan;-24134.41;4895795;29;20207;-75
2022/05/05 00:53:49;;;;;;;6.50;5.00;;;;;;;11.22;nan;-24130.47;4879383;29;20680;-74
2022/05/05 00:56:16;;;;;;;6.50;4.85;;;;;;;11.08;nan;-24126.50;4897008;29;20206;-72
2022/05/05 00:58:45;;;;;;;8.55;5.35;;;;;;;11.17;nan;-24128.91;4895854;29;20184;-72
2022/05/05 01:01:14;;;;;;;6.45;5.30;;;;;;;11.11;nan;-24127.22;4895542;29;20239;-74
2022/05/05 01:03:40;;;;;;;7.18;5.38;;;;;;;10.88;nan;-24121.00;4877344;29;20274;-74
2022/05/05 01:06:06;;;;;;;10.63;5.53;;;;;;;10.80;nan;-24118.63;4894914;29;20717;-77
2022/05/05 01:08:36;;;;;;;6.97;5.13;;;;;;;10.98;nan;-24123.84;4894227;29;20192;-75
2022/05/05 01:11:02;;;;;;;7.97;5.75;;;;;;;11.17;nan;-24129.03;4892821;29;20227;-74
2022/05/05 01:13:29;;;;;;;6.53;4.85;;;;;;;11.17;nan;-24129.03;4894027;29;20583;-74
2022/05/05 01:15:55;;;;;;;7.90;5.28;;;;;;;10.84;nan;-24119.88;4895102;29;20612;-75
2022/05/05 01:18:21;;;;;;;7.15;5.35;;;;;;;10.97;nan;-24123.53;4895054;29;20190;-75
2022/05/05 01:20:50;;;;;;;7.13;4.82;;;;;;;10.90;nan;-24121.44;4894253;29;20187;-74
2022/05/05 01:23:16;;;;;;;8.85;5.13;;;;;;;10.99;nan;-24123.97;4891563;29;20188;-73
2022/05/05 01:28:29;;;;;;;7.10;5.40;;;;;;;10.98;nan;-24123.69;4892173;29;20219;-75
2022/05/05 01:30:55;;;;;;;7.50;5.10;;;;;;;10.82;nan;-24119.19;4895587;29;20190;-74
2022/05/05 01:33:22;;;;;;;6.45;4.82;;;;;;;10.78;nan;-24118.19;4909180;29;20207;-72
2022/05/05 01:35:50;;;;;;;8.35;4.80;;;;;;;10.60;nan;-24113.25;4893441;29;20184;-75
2022/05/05 01:38:18;;;;;;;6.57;4.57;;;;;;;10.74;nan;-24116.91;4894611;29;20690;-72
2022/05/05 01:40:46;;;;;;;5.90;4.60;;;;;;;10.47;nan;-24109.59;4892947;29;20192;-74
2022/05/05 01:43:13;;;;;;;7.38;4.82;;;;;;;10.73;nan;-24116.63;4893899;29;20187;-75
2022/05/05 01:45:38;;;;;;;9.93;5.07;;;;;;;10.42;nan;-24108.03;4878030;29;20691;-75
2022/05/05 01:48:04;;;;;;;7.25;4.75;;;;;;;10.43;nan;-24108.31;4895864;29;20270;-75
2022/05/05 01:50:32;;;;;;;9.30;5.00;;;;;;;10.51;nan;-24110.72;4894703;29;20208;-75
2022/05/05 01:52:59;;;;;;;6.70;4.90;;;;;;;10.33;nan;-24105.63;4897976;29;20215;-72
2022/05/05 01:55:26;;;;;;;8.25;5.05;;;;;;;10.42;nan;-24108.16;4916621;29;20224;-72
2022/05/05 01:57:52;;;;;;;7.85;5.28;;;;;;;10.46;nan;-24109.16;4899927;29;20255;-72
2022/05/05 02:00:18;;;;;;;6.00;4.67;;;;;;;10.35;nan;-24106.19;4890885;29;20652;-72
2022/05/05 02:02:44;;;;;;;8.13;4.97;;;;;;;10.32;nan;-24105.34;4853806;29;1192285;-75
2022/05/05 02:05:11;;;;;;;7.43;4.93;;;;;;;10.02;nan;-24096.88;4894891;29;20234;-74
2022/05/05 02:07:37;;;;;;;7.43;4.80;;;;;;;9.87;nan;-24092.63;4896733;29;20202;-72
2022/05/05 02:10:08;;;;;;;8.57;4.90;;;;;;;9.92;nan;-24094.06;4911449;29;20306;-72
2022/05/05 02:12:36;;;;;;;6.83;4.80;;;;;;;10.16;nan;-24100.84;4896563;29;20719;-72
2022/05/05 02:15:08;;;;;;;6.87;4.90;;;;;;;10.00;nan;-24096.31;4909879;29;20318;-74
2022/05/05 02:17:38;;;;;;;7.70;4.80;;;;;;;10.03;nan;-24097.31;4915356;29;20187;-71
2022/05/05 02:20:05;;;;;;;6.93;5.27;;;;;;;10.12;nan;-24099.84;4915696;29;20168;-73
2022/05/05 02:22:31;;;;;;;5.57;4.87;;;;;;;9.95;nan;-24095.03;4915893;29;20172;-75
2022/05/05 02:24:57;;;;;;;8.97;5.63;;;;;;;9.69;nan;-24087.69;4907458;29;20195;-75
2022/05/05 02:27:23;;;;;;;6.77;5.60;;;;;;;9.82;nan;-24091.22;4896493;29;20184;-73
2022/05/05 02:29:49;;;;;;;6.97;5.10;;;;;;;9.75;nan;-24089.38;4879537;29;20199;-74
2022/05/05 02:32:16;;;;;;;8.23;5.60;;;;;;;10.11;nan;-24099.56;4896313;29;20309;-72
2022/05/05 02:34:41;;;;;;;8.30;5.50;;;;;;;10.17;nan;-24101.25;4907731;29;20212;-74
2022/05/05 02:39:51;;;;;;;6.43;5.23;;;;;;;9.97;nan;-24095.47;4915551;29;20191;-72
2022/05/05 02:42:17;;;;;;;9.87;5.77;;;;;;;9.56;nan;-24084.03;4915068;29;20172;-74
2022/05/05 02:44:43;;;;;;;8.63;5.30;;;;;;;9.65;nan;-24086.72;4914903;29;20183;-73
2022/05/05 02:47:09;;;;;;;8.57;5.87;;;;;;;9.94;nan;-24094.63;4915417;29;20187;-73
2022/05/05 02:49:35;;;;;;;7.40;5.67;;;;;;;9.86;nan;-24092.34;4906984;29;20188;-75
2022/05/05 02:52:02;;;;;;;7.00;5.20;;;;;;;9.95;nan;-24094.91;4877417;29;20675;-74
2022/05/05 02:57:11;;;;;;;6.83;5.43;;;;;;;9.87;nan;-24092.78;4897462;29;20248;-75
2022/05/05 02:59:37;;;;;;;8.67;6.00;;;;;;;9.71;nan;-24088.41;4897547;29;20685;-77
2022/05/05 03:02:04;;;;;;;7.50;5.63;;;;;;;9.39;nan;-24079.34;4894789;29;20232;-76
2022/05/05 03:04:29;;;;;;;7.77;5.53;;;;;;;9.59;nan;-24085.00;4898634;29;20294;-75
2022/05/05 03:06:54;;;;;;;8.90;6.10;;;;;;;9.65;nan;-24086.72;4919465;29;20267;-73
2022/05/05 03:09:20;;;;;;;7.77;5.97;;;;;;;9.50;nan;-24082.31;4892925;29;20184;-71
2022/05/05 03:11:45;;;;;;;10.90;5.77;;;;;;;9.71;nan;-24088.25;4910686;29;20191;-74
2022/05/05 03:14:11;;;;;;;8.93;5.80;;;;;;;9.48;nan;-24081.91;4896608;29;20216;-76
2022/05/05 03:16:36;;;;;;;8.20;5.77;;;;;;;9.74;nan;-24089.25;4881697;29;20228;-73
2022/05/05 03:19:02;;;;;;;10.27;5.97;;;;;;;9.67;nan;-24087.13;4896646;29;20660;-74
2022/05/05 03:21:27;;;;;;;8.53;6.40;;;;;;;9.49;nan;-24082.03;4880568;29;20195;-73
2022/05/05 03:23:52;;;;;;;7.47;5.60;;;;;;;9.61;nan;-24085.56;4911836;29;20570;-76
2022/05/05 03:26:18;;;;;;;8.77;5.73;;;;;;;10.12;nan;-24099.69;4898260;29;20184;-76
2022/05/05 03:28:44;;;;;;;9.60;5.57;;;;;;;10.16;nan;-24100.84;4897258;29;20192;-74
2022/05/05 03:31:10;;;;;;;8.67;6.07;;;;;;;10.10;nan;-24099.13;4908907;29;20637;-72
2022/05/05 03:33:36;;;;;;;7.47;5.60;;;;;;;10.31;nan;-24105.06;4910586;29;20254;-76
2022/05/05 03:36:03;;;;;;;9.10;6.27;;;;;;;10.62;nan;-24113.69;4898253;29;20218;-73
2022/05/05 03:38:29;;;;;;;7.30;5.00;;;;;;;11.62;nan;-24141.44;4881292;29;20184;-75
2022/05/05 03:40:54;;;;;;;6.50;5.13;;;;;;;12.52;nan;-24166.66;4895869;29;20199;-74
2022/05/05 03:43:20;;;;;;;5.40;4.53;;;;;;;13.04;nan;-24181.13;4896370;29;20683;-73
2022/05/05 03:45:45;;;;;;;6.20;4.68;;;;;;;13.81;nan;-24202.34;4903351;29;20198;-73
2022/05/05 03:48:11;;;;;;;7.45;4.55;;;;;;;14.12;nan;-24211.19;4891545;29;20195;-74
2022/05/05 03:50:36;;;;;;;6.40;4.40;;;;;;;13.99;nan;-24207.53;4891898;29;20227;-77
2022/05/05 03:53:05;;;;;;;6.20;4.15;;;;;;;14.71;nan;-24227.47;4892142;29;20220;-75
2022/05/05 03:55:30;;;;;;;7.88;4.53;;;;;;;15.82;nan;-24258.28;4890757;29;20180;-71
2022/05/05 03:57:56;;;;;;;5.32;4.28;;;;;;;16.17;nan;-24267.78;4891701;29;20198;-70
2022/05/05 04:00:22;;;;;;;7.05;5.05;;;;;;;16.68;nan;-24282.03;4892037;29;20199;-69
2022/05/05 04:03:30;;;;;;;5.00;4.22;;;;;;;17.19;nan;-24296.00;4892389;29;20232;-74
2022/05/05 04:05:35;;;;;;;5.30;4.20;;;;;;;17.02;nan;-24291.25;4892205;29;20559;-69
2022/05/05 04:08:04;;;;;;;7.32;4.18;;;;;;;17.85;nan;-24314.28;4891205;29;20248;-73
2022/05/05 04:10:31;;;;;;;5.72;4.30;;;;;;;18.34;nan;-24327.81;4890500;29;20191;-70
2022/05/05 04:12:57;;;;;;;4.82;3.97;;;;;;;18.88;nan;-24342.56;4892559;29;20192;-70
2022/05/05 04:15:24;;;;;;;6.20;3.90;;;;;;;18.73;nan;-24338.53;4891742;29;20207;-70
2022/05/05 04:17:50;;;;;;;7.55;4.22;;;;;;;19.24;nan;-24352.59;4891896;29;20247;-72
2022/05/05 04:20:16;;;;;;;8.75;5.35;;;;;;;19.10;nan;-24348.69;4894216;29;20267;-69
2022/05/05 04:22:42;;;;;;;6.78;4.50;;;;;;;19.03;nan;-24346.75;4890874;29;20342;-67
2022/05/05 04:25:08;;;;;;;6.32;4.32;;;;;;;19.29;nan;-24354.00;4891297;29;20667;-70
2022/05/05 04:27:35;;;;;;;6.82;4.72;;;;;;;19.67;nan;-24364.28;4890403;29;20180;-72
2022/05/05 04:30:01;;;;;;;7.03;4.35;;;;;;;19.85;nan;-24369.28;4890070;29;20593;-73
2022/05/05 04:32:27;;;;;;;5.97;4.93;;;;;;;19.71;nan;-24365.53;4890092;29;20184;-72
2022/05/05 04:34:54;;;;;;;8.98;4.60;;;;;;;20.20;nan;-24379.00;4890776;29;20748;-70
2022/05/05 04:37:20;;;;;;;6.18;4.18;;;;;;;20.38;nan;-24383.75;4889603;29;20188;-69
2022/05/05 04:39:45;;;;;;;9.18;4.70;;;;;;;19.82;nan;-24368.59;4889802;29;20203;-65
2022/05/05 04:42:12;;;;;;;5.60;4.53;;;;;;;19.51;nan;-24359.84;4896360;29;20591;-68
2022/05/05 04:44:37;;;;;;;8.63;4.07;;;;;;;18.64;nan;-24335.91;4895576;29;20723;-67
2022/05/05 04:47:03;;;;;;;10.23;4.65;;;;;;;18.24;nan;-24324.88;4888951;29;20188;-69
2022/05/05 04:49:29;;;;;;;5.00;3.88;;;;;;;18.03;nan;-24319.31;4893325;29;20587;-70
2022/05/05 04:51:54;;;;;;;7.20;4.53;;;;;;;17.52;nan;-24305.09;4910795;29;20192;-68
2022/05/05 04:54:20;;;;;;;7.40;4.35;;;;;;;18.18;nan;-24323.34;4897112;29;20294;-65
2022/05/05 04:56:45;;;;;;;6.95;4.47;;;;;;;18.12;nan;-24321.69;4896691;29;20595;-68
2022/05/05 04:59:12;;;;;;;7.13;4.85;;;;;;;18.01;nan;-24318.75;4911597;29;20172;-66
2022/05/05 05:01:37;;;;;;;5.63;3.80;;;;;;;17.09;nan;-24293.34;4914000;29;20231;-66
2022/05/05 05:04:03;;;;;;;6.07;4.10;;;;;;;16.96;nan;-24289.59;4915717;29;20176;-68
2022/05/05 05:06:28;;;;;;;6.20;3.92;;;;;;;16.41;nan;-24274.34;4900429;29;20184;-67
2022/05/05 05:08:55;;;;;;;7.13;4.22;;;;;;;16.14;nan;-24267.09;4911041;29;20188;-70
2022/05/05 05:11:21;;;;;;;5.25;4.10;;;;;;;15.47;nan;-24248.47;4896541;29;20188;-67
2022/05/05 05:13:46;;;;;;;5.95;4.25;;;;;;;14.84;nan;-24230.97;4895151;29;21307;-66
2022/05/05 05:16:11;;;;;;;7.43;4.60;;;;;;;14.73;nan;-24227.88;4910356;29;20199;-69
2022/05/05 05:18:37;;;;;;;6.75;5.07;;;;;;;14.72;nan;-24227.75;4896404;29;20204;-66
2022/05/05 05:21:03;;;;;;;5.82;5.15;;;;;;;13.89;nan;-24204.59;4895917;29;20180;-67
2022/05/05 05:23:29;;;;;;;11.20;6.20;;;;;;;14.20;nan;-24213.16;4895617;29;20192;-69
2022/05/05 05:25:54;;;;;;;12.73;7.38;;;;;;;14.27;nan;-24215.13;4896523;29;20617;-71
2022/05/05 05:28:20;;;;;;;8.90;5.90;;;;;;;14.85;nan;-24231.25;4890338;29;20211;-67
2022/05/05 05:30:46;;;;;;;7.80;6.25;;;;;;;14.47;nan;-24220.88;4892370;29;20188;-68
2022/05/05 05:33:11;;;;;;;7.38;6.13;;;;;;;15.15;nan;-24239.66;4894759;29;20202;-67
2022/05/05 05:35:37;;;;;;;8.10;6.40;;;;;;;14.86;nan;-24231.66;4890062;29;20184;-67
2022/05/05 05:38:03;;;;;;;11.68;6.57;;;;;;;15.18;nan;-24240.34;4896135;29;20640;-69
2022/05/05 05:40:28;;;;;;;8.52;5.97;;;;;;;15.13;nan;-24239.09;4896522;29;20187;-72
2022/05/05 05:42:53;;;;;;;10.38;6.47;;;;;;;14.83;nan;-24230.69;4896414;29;20640;-68
2022/05/05 05:45:19;;;;;;;8.23;6.28;;;;;;;14.80;nan;-24229.97;4892890;29;20184;-66
2022/05/05 05:47:45;;;;;;;7.60;5.78;;;;;;;14.90;nan;-24232.63;4894835;29;20225;-68
2022/05/05 05:50:10;;;;;;;12.68;6.38;;;;;;;15.14;nan;-24239.22;4895474;29;20180;-67
2022/05/05 05:52:36;;;;;;;8.13;5.85;;;;;;;15.02;nan;-24236.16;4893948;29;20671;-66
2022/05/05 05:55:02;;;;;;;8.65;6.20;;;;;;;15.00;nan;-24235.59;4909956;29;20613;-66
2022/05/05 05:57:28;;;;;;;8.60;5.63;;;;;;;14.93;nan;-24233.50;4896458;29;20261;-67
2022/05/05 05:59:53;;;;;;;8.23;5.55;;;;;;;15.41;nan;-24246.78;4895048;29;20180;-67
2022/05/05 06:05:05;;;;;;;7.30;5.80;;;;;;;15.20;nan;-24240.91;4902125;29;20255;-68
2022/05/05 06:07:30;;;;;;;8.18;6.03;;;;;;;15.60;nan;-24252.13;4895564;29;20563;-68
2022/05/05 06:09:56;;;;;;;7.55;5.90;;;;;;;15.62;nan;-24252.53;4909163;29;20192;-69
2022/05/05 06:12:21;;;;;;;8.52;5.82;;;;;;;15.15;nan;-24239.50;4911905;29;20184;-67
2022/05/05 06:14:47;;;;;;;10.90;6.07;;;;;;;15.16;nan;-24239.78;4894089;29;20220;-67
2022/05/05 06:17:12;;;;;;;7.20;5.88;;;;;;;15.71;nan;-24255.06;4896373;29;20172;-69
2022/05/05 06:19:38;;;;;;;10.60;6.55;;;;;;;15.86;nan;-24259.38;4896764;29;20652;-67
2022/05/05 06:22:03;;;;;;;9.38;6.80;;;;;;;15.98;nan;-24262.47;4896059;29;20188;-68
2022/05/05 06:24:29;;;;;;;9.60;5.72;;;;;;;15.58;nan;-24251.56;4879724;29;20188;-70
2022/05/05 06:26:54;;;;;;;7.00;5.43;;;;;;;15.88;nan;-24259.94;4897945;29;20604;-70
2022/05/05 06:29:19;;;;;;;8.23;5.80;;;;;;;15.86;nan;-24259.25;4898687;29;20329;-69
2022/05/05 06:31:45;;;;;;;9.27;5.95;;;;;;;15.73;nan;-24255.75;4899814;29;20640;-69
2022/05/05 06:34:10;;;;;;;6.80;5.45;;;;;;;15.75;nan;-24256.31;4900050;29;20200;-68
2022/05/05 06:36:36;;;;;;;7.20;5.63;;;;;;;16.05;nan;-24264.44;4898879;29;20224;-69
2022/05/05 06:39:01;;;;;;;11.63;5.70;;;;;;;16.47;nan;-24276.16;4899442;29;20195;-70
2022/05/05 06:41:28;;;;;;;6.63;5.30;;;;;;;16.49;nan;-24276.72;4898977;29;20711;-69
2022/05/05 06:43:54;;;;;;;7.68;5.80;;;;;;;16.42;nan;-24274.63;4900002;29;20260;-70
2022/05/05 06:46:19;;;;;;;7.30;5.35;;;;;;;16.92;nan;-24288.63;4898530;29;20180;-68
2022/05/05 06:48:45;;;;;;;6.78;6.07;;;;;;;17.15;nan;-24294.91;4899481;29;20173;-71
2022/05/05 06:51:11;;;;;;;8.60;5.00;;;;;;;17.05;nan;-24292.25;4899687;29;20718;-71
2022/05/05 06:53:36;;;;;;;10.35;5.53;;;;;;;16.89;nan;-24287.78;4899536;29;20294;-71
2022/05/05 06:56:01;;;;;;;6.45;5.00;;;;;;;17.21;nan;-24296.56;4899157;29;20247;-68
2022/05/05 06:58:27;;;;;;;6.60;4.90;;;;;;;17.58;nan;-24306.75;4899282;29;20180;-68
2022/05/05 07:03:36;;;;;;;5.20;4.28;;;;;;;17.97;nan;-24317.50;4899500;29;20186;-69
2022/05/05 07:06:02;;;;;;;6.30;3.90;;;;;;;17.77;nan;-24311.91;4899348;29;20262;-69
2022/05/05 07:10:52;;;;;;;10.75;7.88;;;;;;;17.87;nan;-24314.84;4901217;29;20207;-70
2022/05/05 07:11:14;;;;;;;9.85;7.32;;;;;;;18.04;nan;-24319.59;4918104;29;20191;-69
2022/05/05 07:13:39;;;;;;;9.00;5.43;;;;;;;17.83;nan;-24313.75;4917609;29;20199;-69
2022/05/05 07:16:04;;;;;;;6.85;4.30;;;;;;;18.48;nan;-24331.72;4918077;29;20179;-68
2022/05/05 07:18:30;;;;;;;5.22;4.10;;;;;;;18.24;nan;-24324.88;4916950;29;20234;-68
2022/05/05 07:20:55;;;;;;;4.65;3.95;;;;;;;18.18;nan;-24323.22;4918332;29;20659;-67
2022/05/05 07:23:21;;;;;;;6.75;3.92;;;;;;;18.27;nan;-24325.72;4918163;29;20179;-69
2022/05/05 07:25:46;;;;;;;5.47;3.67;;;;;;;18.44;nan;-24330.47;4918357;29;20229;-69
2022/05/05 07:28:13;;;;;;;5.85;3.72;;;;;;;18.05;nan;-24319.88;4916441;29;20275;-71
2022/05/05 07:30:39;;;;;;;5.47;3.80;;;;;;;18.41;nan;-24329.75;4917779;29;20190;-68
2022/05/05 07:33:05;;;;;;;5.25;3.58;;;;;;;18.60;nan;-24334.78;4917558;29;20176;-68
2022/05/05 07:35:31;;;;;;;8.30;3.63;;;;;;;18.71;nan;-24337.84;4917860;29;20160;-70
2022/05/05 07:37:57;;;;;;;7.18;4.95;;;;;;;17.70;nan;-24309.97;4917664;29;20183;-68
2022/05/05 07:40:23;;;;;;;5.00;3.75;;;;;;;17.80;nan;-24312.75;4917617;29;20251;-70
2022/05/05 07:42:48;;;;;;;4.40;3.50;;;;;;;17.93;nan;-24316.53;4917191;29;20668;-69
2022/05/05 07:45:13;;;;;;;3.95;3.50;;;;;;;18.24;nan;-24324.88;4917573;29;20167;-68
2022/05/05 07:47:39;;;;;;;7.00;4.18;;;;;;;18.54;nan;-24333.25;4918027;29;20179;-70
2022/05/05 07:50:05;;;;;;;4.47;3.50;;;;;;;18.67;nan;-24336.72;4917980;29;20189;-68
2022/05/05 07:52:31;;;;;;;4.43;3.50;;;;;;;18.23;nan;-24324.75;4918183;29;20263;-70
2022/05/05 07:54:56;;;;;;;6.05;3.40;;;;;;;18.73;nan;-24338.53;4917429;29;20275;-70
2022/05/05 07:57:22;;;;;;;4.20;3.38;;;;;;;19.08;nan;-24348.16;4917033;29;20187;-69
2022/05/05 07:59:48;;;;;;;5.43;3.70;;;;;;;18.97;nan;-24345.22;4917556;29;20179;-70
2022/05/05 08:02:15;;;;;;;4.82;3.35;;;;;;;18.88;nan;-24342.56;4917724;29;20301;-68
2022/05/05 08:04:41;;;;;;;9.10;3.58;;;;;;;18.84;nan;-24341.47;4917331;29;20176;-70
2022/05/05 08:07:07;;;;;;;4.10;3.53;;;;;;;19.26;nan;-24353.16;4917437;29;20195;-69
2022/05/05 08:09:32;;;;;;;4.15;3.33;;;;;;;19.63;nan;-24363.16;4917036;29;20183;-70
2022/05/05 08:12:01;;;;;;;4.20;3.30;;;;;;;19.82;nan;-24368.59;4916830;29;20171;-68
2022/05/05 08:14:27;;;;;;;4.63;3.05;;;;;;;19.77;nan;-24367.06;4916962;29;20277;-70
2022/05/05 08:16:53;;;;;;;3.33;2.85;;;;;;;19.35;nan;-24355.66;4917233;29;20184;-69
2022/05/05 08:19:20;;;;;;;3.17;2.88;;;;;;;19.53;nan;-24360.53;4917093;29;20703;-71
2022/05/05 08:21:46;;;;;;;4.07;3.17;;;;;;;19.45;nan;-24358.31;4917182;29;20179;-71
2022/05/05 08:29:39;;;;;;;6.10;3.20;;;;;;;19.69;nan;-24364.97;4892735;29;20202;-66
2022/05/05 08:32:05;;;;;;;3.72;2.90;;;;;;;19.37;nan;-24356.22;4892599;29;21349;-69
2022/05/05 08:34:30;;;;;;;5.60;2.85;;;;;;;19.39;nan;-24356.63;4903840;29;20247;-67
2022/05/05 08:36:56;;;;;;;5.25;3.33;;;;;;;19.45;nan;-24358.16;4888897;29;20251;-65
2022/05/05 08:39:21;;;;;;;4.53;3.10;;;;;;;19.28;nan;-24353.72;4888712;29;20182;-67
2022/05/05 08:41:47;;;;;;;3.45;3.00;;;;;;;19.18;nan;-24350.94;4891661;29;20207;-67
2022/05/05 08:44:13;;;;;;;4.18;3.15;;;;;;;19.86;nan;-24369.56;4903979;29;20284;-68
2022/05/05 08:46:40;;;;;;;4.28;3.10;;;;;;;20.12;nan;-24376.78;4887899;29;20192;-65
2022/05/05 08:49:06;;;;;;;3.20;2.78;;;;;;;19.80;nan;-24368.03;4888846;29;20188;-66
2022/05/05 08:51:46;;;;;;;4.13;3.40;;;;;;;20.32;nan;-24382.22;4891266;29;20183;-67
2022/05/05 08:54:18;;;;;;;3.60;2.95;;;;;;;20.35;nan;-24383.03;4897252;29;20211;-67
2022/05/05 08:56:45;;;;;;;5.13;3.17;;;;;;;20.86;nan;-24397.06;4893500;29;20195;-67
2022/05/05 08:59:13;;;;;;;4.30;2.63;;;;;;;20.46;nan;-24385.97;4888641;29;20191;-67
2022/05/05 09:01:39;;;;;;;4.32;3.03;;;;;;;20.74;nan;-24393.72;4907731;29;20725;-69
2022/05/05 09:04:06;;;;;;;4.18;3.20;;;;;;;20.59;nan;-24389.56;4887392;29;20282;-68
2022/05/05 09:06:41;;;;;;;3.50;3.20;;;;;;;21.33;nan;-24409.81;4891898;29;20271;-66
2022/05/05 09:09:23;;;;;;;3.45;2.85;;;;;;;21.47;nan;-24413.69;4887581;29;20259;-68
2022/05/05 09:12:04;;;;;;;5.65;3.03;;;;;;;21.79;nan;-24422.56;4889315;29;20204;-69
2022/05/05 09:14:39;;;;;;;3.72;3.10;;;;;;;21.82;nan;-24423.25;4894733;29;20937;-67
2022/05/05 09:17:06;;;;;;;3.30;3.00;;;;;;;22.11;nan;-24431.16;4895251;29;20278;-67
2022/05/05 09:19:37;;;;;;;3.85;3.35;;;;;;;22.24;nan;-24434.75;4894139;29;20192;-66
2022/05/05 09:22:07;;;;;;;3.45;3.10;;;;;;;22.43;nan;-24440.00;4902597;29;20188;-66
2022/05/05 09:24:36;;;;;;;3.20;2.90;;;;;;;22.26;nan;-24435.44;4887417;29;20644;-69
2022/05/05 09:27:24;;;;;;;4.22;2.75;;;;;;;22.70;nan;-24447.34;4887442;29;20195;-67
2022/05/05 09:30:10;;;;;;;3.58;3.08;;;;;;;22.74;nan;-24448.59;4886055;29;20195;-67
2022/05/05 09:32:43;;;;;;;3.58;3.28;;;;;;;22.54;nan;-24443.06;4887913;29;20673;-69
2022/05/05 09:35:15;;;;;;;5.22;3.13;;;;;;;22.78;nan;-24449.69;4886235;29;20595;-68
2022/05/05 09:37:50;;;;;;;5.70;2.90;;;;;;;21.86;nan;-24424.50;4888404;29;20175;-70
2022/05/05 09:40:18;;;;;;;4.03;2.60;;;;;;;22.25;nan;-24435.03;4889220;29;20195;-69
2022/05/05 09:42:49;;;;;;;3.75;2.42;;;;;;;21.99;nan;-24427.97;4895174;29;20244;-67
2022/05/05 09:45:23;;;;;;;6.47;3.03;;;;;;;22.19;nan;-24433.38;4892364;29;20202;-67
2022/05/05 09:47:54;;;;;;;3.50;2.80;;;;;;;22.33;nan;-24437.38;4892929;29;20187;-68
2022/05/05 09:50:22;;;;;;;3.75;2.83;;;;;;;22.46;nan;-24440.84;4891432;29;20191;-67
2022/05/05 09:58:23;;;;;;;3.25;2.85;;;;;;;23.12;nan;-24458.94;4894516;29;20195;-66
2022/05/05 10:01:00;;;;;;;3.50;2.85;;;;;;;23.12;nan;-24458.94;4895213;29;20249;-67
2022/05/05 10:04:00;;;;;;;5.35;2.95;;;;;;;22.95;nan;-24454.25;4897107;29;20572;-67
2022/05/05 10:06:34;;;;;;;4.00;3.00;;;;;;;23.22;nan;-24461.56;4901324;29;20255;-67
2022/05/05 10:09:05;;;;;;;3.05;2.72;;;;;;;22.95;nan;-24454.25;4901254;29;20250;-66
2022/05/05 10:11:31;;;;;;;3.80;3.13;;;;;;;23.28;nan;-24463.38;4898756;29;20249;-66
2022/05/05 10:14:00;;;;;;;4.22;2.90;;;;;;;23.30;nan;-24463.78;4900115;29;20298;-65
2022/05/05 10:16:26;;;;;;;5.15;3.72;;;;;;;23.39;nan;-24466.13;4896881;29;20237;-69
2022/05/05 10:18:52;;;;;;;4.20;3.35;;;;;;;23.36;nan;-24465.44;4898635;29;20675;-67
2022/05/05 10:21:35;;;;;;;5.75;2.90;;;;;;;23.21;nan;-24461.31;4900017;29;20188;-67
2022/05/05 10:24:11;;;;;;;3.70;3.00;;;;;;;22.39;nan;-24438.91;4899852;29;20628;-67
2022/05/05 10:26:36;;;;;;;4.35;2.97;;;;;;;22.18;nan;-24433.22;4900304;29;20244;-66
2022/05/05 10:29:02;;;;;;;5.03;2.90;;;;;;;22.99;nan;-24455.22;4898920;29;20199;-66
2022/05/05 10:31:31;;;;;;;4.18;2.75;;;;;;;23.15;nan;-24459.66;4901098;29;20327;-67
2022/05/05 10:34:07;;;;;;;5.13;3.10;;;;;;;23.22;nan;-24461.56;4918842;29;20203;-66
2022/05/05 10:36:34;;;;;;;4.55;3.15;;;;;;;22.94;nan;-24453.97;4907167;29;20191;-67
2022/05/05 10:39:16;;;;;;;4.40;3.60;;;;;;;23.07;nan;-24457.56;4883253;29;20619;-66
2022/05/05 10:41:41;;;;;;;4.60;3.30;;;;;;;23.20;nan;-24461.16;4899696;29;20175;-66
2022/05/05 10:44:16;;;;;;;5.20;3.20;;;;;;;22.82;nan;-24450.81;4898984;29;20176;-66
2022/05/05 10:47:04;;;;;;;4.57;3.42;;;;;;;22.70;nan;-24447.50;4899560;29;20250;-66
2022/05/05 10:49:39;;;;;;;3.92;3.40;;;;;;;22.66;nan;-24446.38;4899223;29;20688;-67
2022/05/05 10:52:10;;;;;;;4.38;3.35;;;;;;;22.69;nan;-24447.06;4898027;29;20183;-67
2022/05/05 10:54:55;;;;;;;4.65;3.22;;;;;;;23.06;nan;-24457.16;4895548;29;20212;-68
2022/05/05 10:57:27;;;;;;;3.88;3.20;;;;;;;23.13;nan;-24459.09;4893759;29;20318;-67
2022/05/05 11:00:11;;;;;;;4.72;3.47;;;;;;;22.94;nan;-24453.84;4890640;29;20566;-66
2022/05/05 11:03:01;;;;;;;4.97;3.60;;;;;;;22.76;nan;-24449.00;4890984;29;20262;-70
2022/05/05 11:05:39;;;;;;;5.00;3.67;;;;;;;23.28;nan;-24463.25;4892672;29;20192;-69
2022/05/05 11:08:14;;;;;;;7.53;3.80;;;;;;;23.57;nan;-24471.13;4894094;29;20286;-68
2022/05/05 11:13:43;;;;;;;10.50;4.03;;;;;;;24.30;nan;-24490.97;4890869;29;20287;-66
2022/05/05 11:22:23;;;;;;;5.70;3.60;;;;;;;24.23;nan;-24489.19;4892205;29;20244;-67
2022/05/05 11:24:50;;;;;;;5.75;3.80;;;;;;;24.68;nan;-24501.47;4889690;29;20226;-67
2022/05/05 11:27:18;;;;;;;6.03;3.70;;;;;;;24.42;nan;-24494.44;4889396;29;20655;-66
2022/05/05 11:29:54;;;;;;;10.93;3.88;;;;;;;24.16;nan;-24487.41;4892789;29;20577;-67
2022/05/05 11:32:27;;;;;;;5.25;3.85;;;;;;;24.41;nan;-24494.16;4892228;29;20203;-68
2022/05/05 11:34:52;;;;;;;4.78;3.95;;;;;;;23.96;nan;-24481.88;4892780;29;20220;-67
2022/05/05 11:37:18;;;;;;;4.90;4.10;;;;;;;24.49;nan;-24496.34;4891029;29;20271;-68
2022/05/05 11:39:46;;;;;;;7.25;4.80;;;;;;;25.18;nan;-24514.94;4891723;29;20184;-68
2022/05/05 11:42:11;;;;;;;6.80;3.85;;;;;;;25.31;nan;-24518.53;4893940;29;20289;-68
2022/05/05 11:44:41;;;;;;;4.53;3.53;;;;;;;25.15;nan;-24514.28;4894163;29;20733;-67
2022/05/05 11:47:21;;;;;;;6.03;3.60;;;;;;;24.39;nan;-24493.59;4895320;29;20184;-67
2022/05/05 11:49:51;;;;;;;6.72;4.13;;;;;;;24.06;nan;-24484.63;4895799;29;20207;-66
2022/05/05 11:52:22;;;;;;;6.20;3.92;;;;;;;24.17;nan;-24487.53;4891986;29;20676;-66
2022/05/05 11:54:49;;;;;;;4.78;4.00;;;;;;;23.98;nan;-24482.28;4894582;29;20216;-66
2022/05/05 11:57:30;;;;;;;4.35;3.88;;;;;;;24.42;nan;-24494.44;4894601;29;20194;-68
2022/05/05 12:02:40;;;;;;;5.05;4.00;;;;;;;23.72;nan;-24475.38;4893720;29;20274;-67
2022/05/05 12:05:08;;;;;;;6.38;4.10;;;;;;;24.59;nan;-24498.97;4893205;29;20279;-68
2022/05/05 12:07:34;;;;;;;6.60;4.10;;;;;;;24.89;nan;-24507.09;4907920;29;20180;-67
2022/05/05 12:10:05;;;;;;;7.40;3.58;;;;;;;23.68;nan;-24474.16;4891702;29;20256;-67
2022/05/05 12:12:31;;;;;;;5.78;4.05;;;;;;;23.15;nan;-24459.78;4892229;29;20652;-66
2022/05/05 12:15:01;;;;;;;5.50;3.45;;;;;;;23.63;nan;-24472.91;4894241;29;20212;-67
2022/05/05 12:17:45;;;;;;;5.40;3.40;;;;;;;23.69;nan;-24474.44;4895512;29;20222;-66
2022/05/05 12:20:15;;;;;;;6.28;3.60;;;;;;;23.73;nan;-24475.53;4904176;29;20210;-67
2022/05/05 12:22:43;;;;;;;4.93;3.40;;;;;;;23.08;nan;-24457.72;4890344;29;20260;-65
2022/05/05 12:25:14;;;;;;;6.68;3.30;;;;;;;22.94;nan;-24453.97;4888073;29;20229;-65